Estación Meteorológica Peña el Pijo (Robertgarden) [ 05/26/19 18:43:44 CEST ]

Fecha Hora Presion(HPa) Temp (°C) Humedad % Rocio (°C) Viento ( m/s) Direccion Lluvia 1Hora(mm) Lluvia 24H(mm) LLuvia Total(mm)
2018-Dec-12 01:01:44 1011.200 5.1 74 0.8         154.88
2018-Dec-12 02:03:36 1010.800 4.2 76 0.3         154.88
2018-Dec-12 03:03:40 1011.000 4.4 77 0.7         154.88
2018-Dec-12 04:01:45 1010.900 3.3 77 -0.3         154.88
2018-Dec-12 05:02:08 1010.700 3.0 79 -0.3         154.88
2018-Dec-12 06:01:51 1010.500 2.6 80 -0.5         154.88
2018-Dec-12 07:01:57 1010.700 2.4 81 -0.5         154.88
2018-Dec-12 08:01:52 1011.000 2.9 81 -0.0         154.88
2018-Dec-12 09:01:47 1011.400 2.8 81 -0.1         154.88
2018-Dec-12 10:01:52 1011.200 7.6 79 4.2         154.88
2018-Dec-12 11:01:59 1011.100 13.3 61 5.9         154.88
2018-Dec-12 12:01:42 1010.200 16.9 46 5.1         154.88
2018-Dec-12 13:01:43 1009.100 17.4 39 3.3         154.88
2018-Dec-12 14:01:44 1008.100 19.3 35 3.3         154.88
2018-Dec-12 15:01:50 1007.300 18.4 35 2.6 2.0 NNE     154.88
2018-Dec-12 16:01:54 1007.500 17.3 37 2.4         154.88
2018-Dec-12 17:01:47 1007.600 14.4 43 1.9         154.88
2018-Dec-12 18:01:44 1007.800 11.2 50 1.2         154.88
2018-Dec-12 19:01:42 1008.100 8.7 58 0.9         154.88
2018-Dec-12 20:01:59 1008.000 5.4 66 -0.5         154.88
2018-Dec-12 21:01:38 1008.300 6.6 73 2.1 2.3 NNW     154.88
2018-Dec-12 22:01:44 1008.000 7.8 74 3.5 3.6 WNW     154.88
2018-Dec-12 23:01:44 1007.200 7.4 72 2.7         154.88

Temperatura Máxima:19°    Temperatura Mínima:
Presión Máxima:1011.400 Hpa    Presión Mínima:1007.200 Hpa


Volver